Time;durP1;ratioP1;P1;durP2;ratioP2;P2;SDS_P1;SDS_P2;PMS_P1;PMS_P2;Temp;Humidity;BMP_temperature;BMP_pressure;BME280_temperature;BME280_humidity;BME280_pressure;Samples;Min_cycle;Max_cycle;Signal;HPM_P1;HPM_P2
2023/09/28 00:01:17;;;;;;;0.20;0.20;;;18.50;99.90;;;;;;5086373;28;20070;-81
2023/09/28 00:03:44;;;;;;;0.20;0.20;;;18.40;99.90;;;;;;5085270;28;20052;-83
2023/09/28 00:06:10;;;;;;;0.20;0.20;;;18.40;99.90;;;;;;5085900;28;20090;-81
2023/09/28 00:08:36;;;;;;;0.20;0.20;;;18.40;99.90;;;;;;5092779;28;20527;-83
2023/09/28 00:11:03;;;;;;;0.20;0.20;;;18.50;99.90;;;;;;5084821;28;20093;-83
2023/09/28 00:13:29;;;;;;;0.10;0.10;;;18.50;99.90;;;;;;5083875;28;20040;-84
2023/09/28 00:15:55;;;;;;;0.20;0.20;;;18.40;99.90;;;;;;5080890;28;20048;-84
2023/09/28 00:18:21;;;;;;;0.20;0.20;;;18.40;99.90;;;;;;5106372;28;20096;-84
2023/09/28 00:20:47;;;;;;;0.20;0.20;;;18.50;99.90;;;;;;5090712;28;20051;-83
2023/09/28 00:23:13;;;;;;;0.20;0.20;;;18.50;99.90;;;;;;5093005;28;20041;-83
2023/09/28 00:25:39;;;;;;;0.20;0.20;;;18.50;99.90;;;;;;5095664;28;20037;-84
2023/09/28 00:28:05;;;;;;;0.20;0.20;;;18.50;99.90;;;;;;5087983;28;20164;-83
2023/09/28 00:30:31;;;;;;;0.20;0.20;;;18.50;99.90;;;;;;5089392;28;20448;-83
2023/09/28 00:32:57;;;;;;;0.20;0.20;;;18.50;99.90;;;;;;5083373;28;20036;-82
2023/09/28 00:35:24;;;;;;;0.20;0.20;;;18.50;99.90;;;;;;5074008;28;20119;-83
2023/09/28 00:37:50;;;;;;;0.20;0.20;;;18.50;99.90;;;;;;5101654;28;20052;-82
2023/09/28 00:40:18;;;;;;;0.20;0.20;;;18.50;99.90;;;;;;5097848;28;20048;-82
2023/09/28 00:42:49;;;;;;;0.10;0.10;;;18.50;99.90;;;;;;5089510;28;20458;-84
2023/09/28 00:45:15;;;;;;;0.20;0.20;;;18.40;99.90;;;;;;5088111;28;20114;-83
2023/09/28 00:47:42;;;;;;;0.20;0.20;;;18.50;99.90;;;;;;5084811;28;20149;-84
2023/09/28 00:50:14;;;;;;;0.20;0.20;;;18.50;99.90;;;;;;5076327;28;20040;-82
2023/09/28 00:52:48;;;;;;;0.20;0.20;;;18.50;99.90;;;;;;5095739;28;20071;-84
2023/09/28 00:55:17;;;;;;;0.20;0.20;;;18.50;99.90;;;;;;5089455;28;20044;-81
2023/09/28 00:57:44;;;;;;;0.20;0.20;;;18.40;99.90;;;;;;5082703;28;20055;-82
2023/09/28 01:00:29;;;;;;;0.20;0.20;;;18.40;99.90;;;;;;5076052;28;20059;-84
2023/09/28 01:02:57;;;;;;;0.20;0.20;;;18.40;99.90;;;;;;5073042;28;20052;-84
2023/09/28 01:05:26;;;;;;;0.20;0.20;;;18.50;99.90;;;;;;5083183;28;20494;-82
2023/09/28 01:07:53;;;;;;;0.20;0.20;;;18.40;99.90;;;;;;5097277;28;20494;-83
2023/09/28 01:10:25;;;;;;;0.20;0.20;;;18.40;99.90;;;;;;5108790;28;20042;-83
2023/09/28 01:12:51;;;;;;;0.20;0.20;;;18.50;99.90;;;;;;5091095;28;20585;-82
2023/09/28 01:15:17;;;;;;;0.20;0.20;;;18.50;99.90;;;;;;5087052;28;20511;-83
2023/09/28 01:17:43;;;;;;;0.20;0.20;;;18.50;99.90;;;;;;5081974;28;20075;-84
2023/09/28 01:20:25;;;;;;;0.20;0.20;;;18.50;99.90;;;;;;5084091;28;20051;-84
2023/09/28 01:22:53;;;;;;;0.20;0.20;;;18.50;99.90;;;;;;5086505;28;20040;-84
2023/09/28 01:25:19;;;;;;;0.17;0.17;;;18.50;99.90;;;;;;5102837;28;20153;-83
2023/09/28 01:27:46;;;;;;;0.20;0.20;;;18.50;99.90;;;;;;5086553;28;21338;-83
2023/09/28 01:30:13;;;;;;;0.20;0.20;;;18.50;99.90;;;;;;5107519;28;20085;-83
2023/09/28 01:32:39;;;;;;;0.20;0.20;;;18.50;99.90;;;;;;5082827;28;20513;-83
2023/09/28 01:35:06;;;;;;;0.20;0.20;;;18.50;99.90;;;;;;5095741;28;20055;-82
2023/09/28 01:37:44;;;;;;;0.20;0.20;;;18.50;99.90;;;;;;5082715;28;20089;-81
2023/09/28 01:40:13;;;;;;;0.20;0.20;;;18.50;99.90;;;;;;5097913;28;20134;-83
2023/09/28 01:42:38;;;;;;;0.20;0.20;;;18.50;99.90;;;;;;5089483;28;20462;-82
2023/09/28 01:45:05;;;;;;;0.20;0.20;;;18.60;99.90;;;;;;5090239;28;20072;-81
2023/09/28 01:47:30;;;;;;;0.20;0.20;;;18.60;99.90;;;;;;5097389;28;20394;-82
2023/09/28 01:49:56;;;;;;;0.20;0.20;;;18.60;99.90;;;;;;5087614;28;20036;-82
2023/09/28 01:52:22;;;;;;;0.20;0.20;;;18.60;99.90;;;;;;5079083;28;20110;-83
2023/09/28 01:54:48;;;;;;;0.20;0.20;;;18.60;99.90;;;;;;5098177;28;20071;-81
2023/09/28 01:57:14;;;;;;;0.20;0.20;;;18.70;99.90;;;;;;5088123;28;20487;-81
2023/09/28 01:59:39;;;;;;;0.20;0.20;;;18.70;99.90;;;;;;5096060;28;20109;-82
2023/09/28 02:02:05;;;;;;;0.20;0.20;;;18.70;99.90;;;;;;5095679;28;20399;-83
2023/09/28 02:04:31;;;;;;;0.20;0.20;;;18.70;99.90;;;;;;5090064;28;20097;-81
2023/09/28 02:06:57;;;;;;;0.20;0.20;;;18.70;99.90;;;;;;5090117;28;20392;-82
2023/09/28 02:09:23;;;;;;;0.13;0.13;;;18.70;99.90;;;;;;5088352;28;20055;-82
2023/09/28 02:11:49;;;;;;;0.20;0.20;;;18.70;99.90;;;;;;5089097;28;20044;-80
2023/09/28 02:14:15;;;;;;;0.20;0.20;;;18.70;99.90;;;;;;5084568;28;20052;-83
2023/09/28 02:16:40;;;;;;;0.20;0.20;;;18.80;99.90;;;;;;5085315;28;20040;-83
2023/09/28 02:19:10;;;;;;;0.20;0.20;;;18.80;99.90;;;;;;5078059;28;20067;-82
2023/09/28 02:21:36;;;;;;;0.20;0.20;;;18.80;99.90;;;;;;5089295;28;20039;-82
2023/09/28 02:24:01;;;;;;;0.20;0.20;;;18.70;99.90;;;;;;5088854;28;20040;-81
2023/09/28 02:26:27;;;;;;;0.20;0.20;;;18.70;99.90;;;;;;5085055;28;20044;-82
2023/09/28 02:28:53;;;;;;;0.20;0.20;;;18.70;99.90;;;;;;5091183;28;20044;-83
2023/09/28 02:31:18;;;;;;;0.20;0.20;;;18.70;99.90;;;;;;5085348;28;20543;-83
2023/09/28 02:33:47;;;;;;;0.20;0.20;;;18.70;99.90;;;;;;5085614;28;20032;-83
2023/09/28 02:36:14;;;;;;;0.20;0.20;;;18.70;99.90;;;;;;5077784;28;20491;-87
2023/09/28 02:38:40;;;;;;;0.20;0.20;;;18.70;99.90;;;;;;5089317;28;20060;-80
2023/09/28 02:41:17;;;;;;;0.20;0.20;;;18.70;99.90;;;;;;5096220;28;20040;-82
2023/09/28 02:43:43;;;;;;;0.20;0.20;;;18.40;99.90;;;;;;5099054;28;20164;-82
2023/09/28 02:46:09;;;;;;;0.13;0.13;;;18.70;99.90;;;;;;5101372;28;20680;-82
2023/09/28 02:48:35;;;;;;;0.20;0.20;;;18.70;99.90;;;;;;5106700;28;20047;-81
2023/09/28 02:51:07;;;;;;;0.20;0.20;;;18.70;99.90;;;;;;5101642;28;20419;-82
2023/09/28 02:53:35;;;;;;;0.20;0.20;;;18.70;99.90;;;;;;5092838;28;20042;-82
2023/09/28 02:56:00;;;;;;;0.20;0.20;;;18.70;99.90;;;;;;5098361;28;20047;-82
2023/09/28 02:58:26;;;;;;;0.20;0.20;;;18.70;99.90;;;;;;5093406;28;20036;-83
2023/09/28 03:00:53;;;;;;;0.20;0.20;;;18.70;99.90;;;;;;5081951;28;20135;-81
2023/09/28 03:03:19;;;;;;;0.20;0.20;;;18.60;99.90;;;;;;5097932;28;20073;-83
2023/09/28 03:05:45;;;;;;;0.20;0.20;;;18.60;99.90;;;;;;5099891;28;20129;-82
2023/09/28 03:08:14;;;;;;;0.20;0.20;;;18.60;99.90;;;;;;5104459;28;20036;-81
2023/09/28 03:10:43;;;;;;;0.20;0.20;;;18.60;99.90;;;;;;5093596;28;20133;-82
2023/09/28 03:13:11;;;;;;;0.20;0.20;;;18.60;99.90;;;;;;5094097;28;20040;-82
2023/09/28 03:15:40;;;;;;;0.20;0.20;;;18.50;99.90;;;;;;5086627;28;20060;-82
2023/09/28 03:18:06;;;;;;;0.15;0.15;;;18.50;99.90;;;;;;5086355;28;20174;-82
2023/09/28 03:20:31;;;;;;;0.20;0.20;;;18.50;99.90;;;;;;5085321;28;20127;-82
2023/09/28 03:22:57;;;;;;;0.17;0.17;;;18.50;99.90;;;;;;5086014;28;20711;-81
2023/09/28 03:25:23;;;;;;;0.20;0.20;;;18.50;99.90;;;;;;5093608;28;20052;-82
2023/09/28 03:27:51;;;;;;;0.20;0.20;;;18.40;99.90;;;;;;5086088;28;20070;-83
2023/09/28 03:30:19;;;;;;;0.20;0.20;;;18.40;99.90;;;;;;5087194;28;20060;-82
2023/09/28 03:32:48;;;;;;;0.20;0.20;;;18.40;99.90;;;;;;5088838;28;20060;-82
2023/09/28 03:35:16;;;;;;;0.20;0.20;;;18.40;99.90;;;;;;5080622;28;20078;-82
2023/09/28 03:37:42;;;;;;;0.20;0.20;;;18.40;99.90;;;;;;5089163;28;20565;-82
2023/09/28 03:40:12;;;;;;;0.20;0.20;;;18.40;99.90;;;;;;5100502;28;20047;-82
2023/09/28 03:42:46;;;;;;;0.20;0.20;;;18.30;99.90;;;;;;5084483;28;20044;-81
2023/09/28 03:45:14;;;;;;;0.20;0.20;;;18.30;99.90;;;;;;5082350;28;20044;-81
2023/09/28 03:47:41;;;;;;;0.20;0.20;;;18.30;99.90;;;;;;5087940;28;20127;-83
2023/09/28 03:50:12;;;;;;;0.20;0.20;;;18.30;99.90;;;;;;5084595;28;20602;-83
2023/09/28 03:52:38;;;;;;;0.20;0.20;;;18.20;99.90;;;;;;5087424;28;20032;-84
2023/09/28 03:55:08;;;;;;;0.20;0.20;;;18.20;99.90;;;;;;5100679;28;20036;-83
2023/09/28 03:57:33;;;;;;;0.20;0.20;;;18.20;99.90;;;;;;5086771;28;20433;-82
2023/09/28 03:59:59;;;;;;;0.20;0.20;;;18.20;99.90;;;;;;5085988;28;20043;-82
2023/09/28 04:02:28;;;;;;;0.20;0.20;;;18.20;99.90;;;;;;5093631;28;20039;-83
2023/09/28 04:04:55;;;;;;;0.20;0.20;;;18.10;99.90;;;;;;5107275;28;20515;-82
2023/09/28 04:07:21;;;;;;;0.20;0.20;;;18.10;99.90;;;;;;5092553;28;20594;-81
2023/09/28 04:09:48;;;;;;;0.20;0.20;;;18.10;99.90;;;;;;5082997;28;20122;-83
2023/09/28 04:12:14;;;;;;;0.20;0.20;;;18.10;99.90;;;;;;5088386;28;20119;-82
2023/09/28 04:14:40;;;;;;;0.17;0.17;;;18.00;99.90;;;;;;5091028;28;20234;-83
2023/09/28 04:17:05;;;;;;;0.20;0.20;;;18.00;99.90;;;;;;5087765;28;20520;-82
2023/09/28 04:19:31;;;;;;;0.20;0.20;;;18.00;99.90;;;;;;5082688;28;20154;-82
2023/09/28 04:21:57;;;;;;;0.20;0.20;;;18.00;99.90;;;;;;5088052;28;20093;-83
2023/09/28 04:24:23;;;;;;;0.20;0.20;;;18.00;99.90;;;;;;5108937;28;20050;-82
2023/09/28 04:26:49;;;;;;;0.20;0.20;;;17.90;99.90;;;;;;5089869;28;20036;-82
2023/09/28 04:29:14;;;;;;;0.20;0.20;;;17.90;99.90;;;;;;5094740;28;20549;-82
2023/09/28 04:31:40;;;;;;;0.20;0.20;;;17.90;99.90;;;;;;5084425;28;20475;-82
2023/09/28 04:34:07;;;;;;;0.20;0.20;;;17.90;99.90;;;;;;5083790;28;20470;-82
2023/09/28 04:36:34;;;;;;;0.10;0.10;;;17.90;99.90;;;;;;5085612;28;20052;-83
2023/09/28 04:39:00;;;;;;;0.20;0.20;;;17.90;99.90;;;;;;5089850;28;20036;-83
2023/09/28 04:41:26;;;;;;;0.20;0.20;;;17.90;99.90;;;;;;5087312;28;20523;-84
2023/09/28 04:43:52;;;;;;;0.13;0.13;;;17.90;99.90;;;;;;5083497;28;20036;-82
2023/09/28 04:46:18;;;;;;;0.20;0.20;;;17.80;99.90;;;;;;5094400;28;20751;-83
2023/09/28 04:48:43;;;;;;;0.20;0.20;;;17.80;99.90;;;;;;5090611;28;20075;-83
2023/09/28 04:51:09;;;;;;;0.20;0.20;;;17.90;99.90;;;;;;5103384;28;20044;-83
2023/09/28 04:53:35;;;;;;;0.20;0.20;;;17.80;99.90;;;;;;5090076;28;20040;-83
2023/09/28 04:56:11;;;;;;;0.20;0.20;;;17.80;99.90;;;;;;5105721;28;20040;-83
2023/09/28 04:58:38;;;;;;;0.20;0.20;;;17.80;99.90;;;;;;5110449;28;20522;-83
2023/09/28 05:01:04;;;;;;;0.10;0.10;;;17.80;99.90;;;;;;5092068;28;20594;-82
2023/09/28 05:03:30;;;;;;;0.10;0.10;;;17.70;99.90;;;;;;5085469;28;20702;-82
2023/09/28 05:05:57;;;;;;;0.20;0.20;;;17.70;99.90;;;;;;5100941;28;20406;-83
2023/09/28 05:08:23;;;;;;;0.20;0.20;;;17.70;99.90;;;;;;5090743;28;20049;-82
2023/09/28 05:10:50;;;;;;;0.13;0.13;;;17.70;99.90;;;;;;5089293;28;20094;-83
2023/09/28 05:13:19;;;;;;;0.20;0.20;;;17.70;99.90;;;;;;5091293;28;20388;-83
2023/09/28 05:15:45;;;;;;;0.20;0.20;;;17.70;99.90;;;;;;5101376;28;20055;-82
2023/09/28 05:18:10;;;;;;;0.20;0.20;;;17.70;99.90;;;;;;5101306;28;20047;-83
2023/09/28 05:20:36;;;;;;;0.20;0.20;;;17.60;99.90;;;;;;5100570;28;20394;-82
2023/09/28 05:23:03;;;;;;;0.20;0.20;;;17.60;99.90;;;;;;5088978;28;20422;-82
2023/09/28 05:25:30;;;;;;;0.20;0.20;;;17.60;99.90;;;;;;5097964;28;20062;-82
2023/09/28 05:27:55;;;;;;;0.20;0.20;;;17.60;99.90;;;;;;5089831;28;20063;-81
2023/09/28 05:30:21;;;;;;;0.20;0.20;;;17.50;99.90;;;;;;5100115;28;20079;-81
2023/09/28 05:32:47;;;;;;;0.20;0.20;;;17.50;99.90;;;;;;5091125;28;20044;-81
2023/09/28 05:35:12;;;;;;;0.20;0.20;;;17.50;99.90;;;;;;5090010;28;20042;-80
2023/09/28 05:37:41;;;;;;;0.20;0.20;;;17.40;99.90;;;;;;5093424;28;20048;-81
2023/09/28 05:40:07;;;;;;;0.20;0.20;;;17.40;99.90;;;;;;5103921;28;20039;-82
2023/09/28 05:42:34;;;;;;;0.20;0.20;;;17.40;99.90;;;;;;5097307;28;20040;-82
2023/09/28 05:45:00;;;;;;;0.20;0.20;;;17.40;99.90;;;;;;5086443;28;20456;-82
2023/09/28 05:47:26;;;;;;;0.20;0.20;;;17.40;99.90;;;;;;5103382;28;20138;-82
2023/09/28 05:49:52;;;;;;;0.20;0.20;;;17.40;99.90;;;;;;5093449;28;20047;-82
2023/09/28 05:52:19;;;;;;;0.20;0.20;;;17.30;99.90;;;;;;5090780;28;20088;-82
2023/09/28 05:54:45;;;;;;;0.20;0.20;;;17.30;99.90;;;;;;5091499;28;20057;-83
2023/09/28 05:57:12;;;;;;;0.15;0.15;;;17.30;99.90;;;;;;5090556;28;20029;-82
2023/09/28 05:59:38;;;;;;;0.20;0.20;;;17.30;99.90;;;;;;5088321;28;20065;-83
2023/09/28 06:02:04;;;;;;;0.20;0.20;;;17.30;99.90;;;;;;5086108;28;20071;-82
2023/09/28 06:04:30;;;;;;;0.13;0.13;;;17.30;99.90;;;;;;5087597;28;20051;-82
2023/09/28 06:06:56;;;;;;;0.10;0.10;;;17.30;99.90;;;;;;5087356;28;20048;-83
2023/09/28 06:09:22;;;;;;;0.20;0.20;;;17.30;99.90;;;;;;5090491;28;20055;-82
2023/09/28 06:11:48;;;;;;;0.20;0.20;;;17.30;99.90;;;;;;5081727;28;20552;-83
2023/09/28 06:14:15;;;;;;;0.20;0.20;;;17.30;99.90;;;;;;5090304;28;20075;-82
2023/09/28 06:16:44;;;;;;;0.20;0.20;;;17.30;99.90;;;;;;5087081;28;20407;-82
2023/09/28 06:19:12;;;;;;;0.10;0.10;;;17.30;99.90;;;;;;5086072;28;20552;-84
2023/09/28 06:21:38;;;;;;;0.20;0.20;;;17.30;99.90;;;;;;5080750;28;20053;-82
2023/09/28 06:24:05;;;;;;;0.20;0.20;;;17.30;99.90;;;;;;5086498;28;20042;-82
2023/09/28 06:26:31;;;;;;;0.20;0.20;;;17.30;99.90;;;;;;5084172;28;20135;-81
2023/09/28 06:28:57;;;;;;;0.13;0.13;;;17.30;99.90;;;;;;5097862;28;20051;-84
2023/09/28 06:31:23;;;;;;;0.10;0.10;;;17.30;99.90;;;;;;5090488;28;20056;-82
2023/09/28 06:33:49;;;;;;;0.20;0.20;;;17.30;99.90;;;;;;5097781;28;20359;-82
2023/09/28 06:36:16;;;;;;;0.20;0.20;;;17.30;99.90;;;;;;5094390;28;20494;-81
2023/09/28 06:38:42;;;;;;;0.17;0.17;;;17.30;99.90;;;;;;5090891;28;20044;-82
2023/09/28 06:41:08;;;;;;;0.10;0.10;;;17.30;99.90;;;;;;5093565;28;20075;-82
2023/09/28 06:43:35;;;;;;;0.20;0.20;;;17.30;99.90;;;;;;5089164;28;20055;-81
2023/09/28 06:46:01;;;;;;;0.20;0.20;;;17.30;99.90;;;;;;5093150;28;20052;-81
2023/09/28 06:48:27;;;;;;;0.20;0.20;;;17.30;99.90;;;;;;5096081;28;20078;-81
2023/09/28 06:50:59;;;;;;;0.20;0.20;;;17.30;99.90;;;;;;5098718;28;20127;-72
2023/09/28 06:53:25;;;;;;;0.20;0.20;;;17.30;99.90;;;;;;5087314;28;20086;-72
2023/09/28 06:55:52;;;;;;;0.20;0.20;;;17.30;99.90;;;;;;5084996;28;20429;-72
2023/09/28 06:58:19;;;;;;;0.20;0.20;;;17.30;99.90;;;;;;5090863;28;20502;-72
2023/09/28 07:00:45;;;;;;;0.13;0.13;;;17.30;99.90;;;;;;5082769;28;20242;-72
2023/09/28 07:03:11;;;;;;;0.10;0.10;;;17.30;99.90;;;;;;5084458;28;20078;-73
2023/09/28 07:05:38;;;;;;;0.20;0.20;;;17.30;99.90;;;;;;5087748;28;20094;-72
2023/09/28 07:08:05;;;;;;;0.20;0.20;;;17.40;99.90;;;;;;5082842;28;20048;-72
2023/09/28 07:10:35;;;;;;;0.20;0.20;;;17.40;99.90;;;;;;5085248;28;20043;-73
2023/09/28 07:13:05;;;;;;;0.20;0.20;;;17.40;99.90;;;;;;5081368;28;20047;-74
2023/09/28 07:15:38;;;;;;;0.20;0.20;;;17.40;99.90;;;;;;5087954;28;20055;-73
2023/09/28 07:18:04;;;;;;;0.20;0.20;;;17.50;99.90;;;;;;5086904;28;20119;-73
2023/09/28 07:20:30;;;;;;;0.20;0.20;;;17.50;99.90;;;;;;5107828;28;20163;-73
2023/09/28 07:22:56;;;;;;;0.20;0.20;;;17.50;99.90;;;;;;5081760;28;20033;-73
2023/09/28 07:25:22;;;;;;;0.20;0.20;;;17.50;99.90;;;;;;5091313;28;20191;-72
2023/09/28 07:27:52;;;;;;;0.20;0.20;;;17.60;99.90;;;;;;5086407;28;20060;-72
2023/09/28 07:30:22;;;;;;;0.20;0.20;;;17.60;99.90;;;;;;5090066;28;20039;-72
2023/09/28 07:32:49;;;;;;;0.20;0.20;;;17.60;99.90;;;;;;5103197;28;20452;-73
2023/09/28 07:35:15;;;;;;;0.20;0.20;;;17.70;99.90;;;;;;5099944;28;20036;-73
2023/09/28 07:37:42;;;;;;;0.13;0.13;;;17.70;99.90;;;;;;5084211;28;20035;-73
2023/09/28 07:40:12;;;;;;;0.20;0.20;;;17.80;99.90;;;;;;5083347;28;20039;-73
2023/09/28 07:42:44;;;;;;;0.20;0.20;;;17.90;99.90;;;;;;5090433;28;20036;-73
2023/09/28 07:45:11;;;;;;;0.10;0.10;;;17.90;99.90;;;;;;5088531;28;20083;-73
2023/09/28 07:47:38;;;;;;;0.20;0.20;;;18.00;99.90;;;;;;5106039;28;20071;-74
2023/09/28 07:50:05;;;;;;;0.20;0.20;;;18.10;99.90;;;;;;5093800;28;20096;-73
2023/09/28 07:52:31;;;;;;;0.20;0.20;;;18.10;99.90;;;;;;5090047;28;20040;-73
2023/09/28 07:54:57;;;;;;;0.10;0.10;;;18.10;99.90;;;;;;5089103;28;20040;-73
2023/09/28 07:57:23;;;;;;;0.20;0.20;;;18.20;99.90;;;;;;5087955;28;20392;-73
2023/09/28 07:59:49;;;;;;;0.20;0.20;;;18.30;99.90;;;;;;5082648;28;20040;-73
2023/09/28 08:02:14;;;;;;;0.20;0.20;;;18.30;99.90;;;;;;5096852;28;20051;-72
2023/09/28 08:04:40;;;;;;;0.20;0.20;;;18.40;99.90;;;;;;5076896;28;20049;-72
2023/09/28 08:07:06;;;;;;;0.20;0.20;;;18.50;99.90;;;;;;5079593;28;20044;-73
2023/09/28 08:09:33;;;;;;;0.20;0.20;;;18.60;99.90;;;;;;5082746;28;20049;-73
2023/09/28 08:11:58;;;;;;;0.20;0.20;;;18.70;99.90;;;;;;5088676;28;20955;-73
2023/09/28 08:14:25;;;;;;;0.20;0.20;;;18.80;99.90;;;;;;5091940;28;20123;-72
2023/09/28 08:16:50;;;;;;;0.20;0.20;;;18.70;99.90;;;;;;5092604;28;20075;-73
2023/09/28 08:19:17;;;;;;;0.20;0.20;;;18.80;99.90;;;;;;5092204;28;20080;-73
2023/09/28 08:21:43;;;;;;;0.20;0.20;;;18.80;99.90;;;;;;5091601;28;20048;-74
2023/09/28 08:24:10;;;;;;;0.20;0.20;;;18.80;99.90;;;;;;5077524;28;20093;-74
2023/09/28 08:26:36;;;;;;;0.20;0.20;;;18.90;99.90;;;;;;5089412;28;20055;-74
2023/09/28 08:29:03;;;;;;;0.20;0.20;;;18.90;99.90;;;;;;5091990;28;20441;-73
2023/09/28 08:31:31;;;;;;;0.20;0.20;;;18.90;99.90;;;;;;5080313;28;20044;-74
2023/09/28 08:33:59;;;;;;;0.20;0.20;;;18.90;99.90;;;;;;5072759;28;20486;-73
2023/09/28 08:36:25;;;;;;;0.20;0.20;;;18.90;99.90;;;;;;5071772;28;20123;-72
2023/09/28 08:38:51;;;;;;;0.20;0.20;;;19.00;99.90;;;;;;5081773;28;20048;-73
2023/09/28 08:41:25;;;;;;;0.20;0.20;;;19.00;99.90;;;;;;5090076;28;20105;-73
2023/09/28 08:44:03;;;;;;;0.20;0.20;;;19.00;99.90;;;;;;5091320;28;20823;-73
2023/09/28 08:46:32;;;;;;;0.20;0.20;;;19.10;99.90;;;;;;5089869;28;20044;-73
2023/09/28 08:49:02;;;;;;;0.10;0.10;;;19.10;99.90;;;;;;5089479;28;20048;-73
2023/09/28 08:51:29;;;;;;;0.20;0.20;;;19.10;99.90;;;;;;5091454;28;20044;-73
2023/09/28 08:53:57;;;;;;;0.20;0.20;;;19.10;99.90;;;;;;5091157;28;20083;-72
2023/09/28 08:56:23;;;;;;;0.20;0.20;;;19.10;99.90;;;;;;5092120;28;20058;-73
2023/09/28 08:58:50;;;;;;;0.20;0.20;;;19.20;99.90;;;;;;5087673;28;20036;-73
2023/09/28 09:01:17;;;;;;;0.20;0.20;;;19.20;99.90;;;;;;5091617;28;20332;-73
2023/09/28 09:03:43;;;;;;;0.20;0.20;;;19.30;99.90;;;;;;5091485;28;20052;-73
2023/09/28 09:06:12;;;;;;;0.20;0.20;;;19.40;99.90;;;;;;5092673;28;20048;-73
2023/09/28 09:08:42;;;;;;;0.20;0.20;;;19.40;99.90;;;;;;5088607;28;20115;-73
2023/09/28 09:11:10;;;;;;;0.20;0.20;;;19.50;99.90;;;;;;5089328;28;20486;-72
2023/09/28 09:13:48;;;;;;;0.20;0.20;;;19.50;99.90;;;;;;5087542;28;20097;-73
2023/09/28 09:16:14;;;;;;;0.20;0.20;;;19.60;99.90;;;;;;5091123;28;20043;-73
2023/09/28 09:18:41;;;;;;;0.20;0.20;;;19.60;99.90;;;;;;5092429;28;20058;-73
2023/09/28 09:21:07;;;;;;;0.20;0.20;;;19.70;99.90;;;;;;5086153;28;20036;-73
2023/09/28 09:23:33;;;;;;;0.20;0.20;;;19.80;99.90;;;;;;5087532;28;20156;-73
2023/09/28 09:25:59;;;;;;;0.20;0.20;;;19.80;99.90;;;;;;5083870;28;20447;-73
2023/09/28 09:28:37;;;;;;;0.20;0.20;;;19.80;99.90;;;;;;5090231;28;20048;-73
2023/09/28 09:31:03;;;;;;;0.10;0.10;;;19.90;99.90;;;;;;5091345;28;20044;-72
2023/09/28 09:33:29;;;;;;;0.20;0.20;;;19.90;99.90;;;;;;5090611;28;20488;-73
2023/09/28 09:35:55;;;;;;;0.20;0.20;;;19.80;99.90;;;;;;5072966;28;20062;-73
2023/09/28 09:38:27;;;;;;;0.20;0.20;;;19.80;99.90;;;;;;5090490;28;20510;-73
2023/09/28 09:41:01;;;;;;;0.20;0.20;;;19.80;99.90;;;;;;5090911;28;20143;-73
2023/09/28 09:43:35;;;;;;;0.10;0.10;;;19.80;99.90;;;;;;5089889;28;20434;-73
2023/09/28 09:46:09;;;;;;;0.20;0.20;;;19.80;99.90;;;;;;5091112;28;20113;-73
2023/09/28 09:48:40;;;;;;;0.20;0.20;;;19.70;99.90;;;;;;5088961;28;20044;-73
2023/09/28 09:51:20;;;;;;;0.17;0.17;;;19.70;99.90;;;;;;5088300;28;20044;-73
2023/09/28 09:53:46;;;;;;;0.20;0.20;;;19.70;99.90;;;;;;5089989;28;20044;-73
2023/09/28 09:56:14;;;;;;;0.20;0.20;;;19.70;99.90;;;;;;5091206;28;20135;-73
2023/09/28 09:58:49;;;;;;;0.20;0.20;;;19.70;99.90;;;;;;5070483;28;20043;-73
2023/09/28 10:01:19;;;;;;;0.20;0.20;;;19.80;99.90;;;;;;5085194;28;20051;-74
2023/09/28 10:03:56;;;;;;;0.20;0.20;;;19.80;99.90;;;;;;5084172;28;20051;-75
2023/09/28 10:06:34;;;;;;;0.20;0.20;;;19.80;99.90;;;;;;5087804;28;20109;-74
2023/09/28 10:09:10;;;;;;;;;;;19.80;99.90;;;;;;5090454;28;20066;-73
2023/09/28 10:11:59;;;;;;;0.20;0.20;;;19.50;99.90;;;;;;5088745;28;19920;-74
2023/09/28 10:14:39;;;;;;;0.20;0.20;;;19.40;99.90;;;;;;5088339;28;20066;-75
2023/09/28 10:17:19;;;;;;;0.15;0.15;;;19.70;99.90;;;;;;5086888;28;20040;-74
2023/09/28 10:19:48;;;;;;;0.20;0.20;;;19.70;99.90;;;;;;5069012;28;20357;-73
2023/09/28 10:22:15;;;;;;;0.20;0.20;;;19.40;99.90;;;;;;5069898;28;20076;-73
2023/09/28 10:24:42;;;;;;;0.20;0.20;;;19.80;99.90;;;;;;5078669;28;20044;-73
2023/09/28 10:27:11;;;;;;;0.20;0.20;;;19.80;99.90;;;;;;5085897;28;20093;-73
2023/09/28 10:29:39;;;;;;;0.20;0.20;;;19.80;99.90;;;;;;5088928;28;20052;-73
2023/09/28 10:32:28;;;;;;;0.20;0.20;;;19.80;99.90;;;;;;5090427;28;20048;-73
2023/09/28 10:35:27;;;;;;;0.20;0.20;;;19.90;99.90;;;;;;5085467;28;20127;-74
2023/09/28 10:38:21;;;;;;;0.20;0.20;;;19.90;99.90;;;;;;5082284;28;20051;-73
2023/09/28 10:41:02;;;;;;;0.20;0.20;;;19.90;99.90;;;;;;5087305;28;20047;-73
2023/09/28 10:43:49;;;;;;;0.20;0.20;;;19.90;99.90;;;;;;5084679;28;20040;-73
2023/09/28 10:46:15;;;;;;;0.20;0.20;;;19.80;99.90;;;;;;5076780;28;20036;-73
2023/09/28 10:48:45;;;;;;;0.20;0.20;;;19.70;99.90;;;;;;5087378;28;20546;-73
2023/09/28 10:51:15;;;;;;;0.20;0.20;;;19.70;99.90;;;;;;5086779;28;20036;-73
2023/09/28 10:53:42;;;;;;;0.20;0.20;;;19.70;99.90;;;;;;5087389;28;20052;-73
2023/09/28 10:56:08;;;;;;;0.20;0.20;;;19.60;99.90;;;;;;5090112;28;20040;-73
2023/09/28 10:58:34;;;;;;;0.20;0.20;;;19.60;99.90;;;;;;5070632;28;20040;-73
2023/09/28 11:01:04;;;;;;;0.20;0.20;;;19.50;99.90;;;;;;5082437;28;20051;-73
2023/09/28 11:03:31;;;;;;;0.20;0.20;;;19.50;99.90;;;;;;5088977;28;20044;-72
2023/09/28 11:05:58;;;;;;;0.20;0.20;;;19.50;99.90;;;;;;5083751;28;20044;-73
2023/09/28 11:08:25;;;;;;;0.20;0.20;;;19.50;99.90;;;;;;5088520;28;20518;-72
2023/09/28 11:10:51;;;;;;;0.20;0.20;;;19.50;99.90;;;;;;5086777;28;20151;-73
2023/09/28 11:13:17;;;;;;;0.20;0.20;;;19.50;99.90;;;;;;5088252;28;20399;-73
2023/09/28 11:15:44;;;;;;;0.13;0.13;;;19.50;99.90;;;;;;5084771;28;20419;-73
2023/09/28 11:18:09;;;;;;;0.20;0.20;;;19.50;99.90;;;;;;5085533;28;20146;-72
2023/09/28 11:20:35;;;;;;;0.20;0.20;;;19.60;99.90;;;;;;5085455;28;20543;-73
2023/09/28 11:23:01;;;;;;;0.20;0.20;;;19.60;99.90;;;;;;5085794;28;20097;-73
2023/09/28 11:25:27;;;;;;;0.20;0.20;;;19.50;99.90;;;;;;5085744;28;20106;-73
2023/09/28 11:27:54;;;;;;;0.20;0.20;;;19.50;99.90;;;;;;5084654;28;20040;-73
2023/09/28 11:30:19;;;;;;;0.10;0.10;;;19.50;99.90;;;;;;5083371;28;20051;-72
2023/09/28 11:32:51;;;;;;;0.17;0.17;;;19.50;99.90;;;;;;5085642;28;20036;-72
2023/09/28 11:35:22;;;;;;;0.20;0.20;;;19.50;99.90;;;;;;5086553;28;20380;-72
2023/09/28 11:37:48;;;;;;;0.20;0.20;;;19.50;99.90;;;;;;5088847;28;20123;-73
2023/09/28 11:40:15;;;;;;;0.20;0.20;;;19.50;99.90;;;;;;5085814;28;20138;-74
2023/09/28 11:42:42;;;;;;;0.10;0.10;;;19.50;99.90;;;;;;5087164;28;20040;-74
2023/09/28 11:45:12;;;;;;;0.20;0.20;;;19.50;99.90;;;;;;5088156;28;20089;-74
2023/09/28 11:47:37;;;;;;;0.20;0.20;;;19.50;99.90;;;;;;5086323;28;20439;-74
2023/09/28 11:50:07;;;;;;;0.20;0.20;;;19.40;99.90;;;;;;5087981;28;20101;-74
2023/09/28 11:52:35;;;;;;;0.20;0.20;;;19.40;99.90;;;;;;5087528;28;20430;-74
2023/09/28 11:55:01;;;;;;;0.20;0.20;;;19.40;99.90;;;;;;5087707;28;20047;-74
2023/09/28 11:57:27;;;;;;;0.20;0.20;;;19.40;99.90;;;;;;5082497;28;20480;-73
2023/09/28 11:59:53;;;;;;;0.20;0.20;;;19.40;99.90;;;;;;5085813;28;20052;-73
2023/09/28 12:02:20;;;;;;;0.20;0.20;;;19.50;99.90;;;;;;5090262;28;20036;-74
2023/09/28 12:04:45;;;;;;;0.20;0.20;;;19.50;99.90;;;;;;5087087;28;20123;-73
2023/09/28 12:07:14;;;;;;;0.20;0.20;;;19.50;99.90;;;;;;5088822;28;20555;-73
2023/09/28 12:09:39;;;;;;;0.22;0.22;;;19.50;99.90;;;;;;5083613;28;20077;-74
2023/09/28 12:12:05;;;;;;;0.20;0.20;;;19.60;99.90;;;;;;5092904;28;20048;-74
2023/09/28 12:14:31;;;;;;;0.20;0.20;;;19.70;99.90;;;;;;5093127;28;20079;-74
2023/09/28 12:16:57;;;;;;;0.20;0.20;;;19.80;99.90;;;;;;5080395;28;20058;-74
2023/09/28 12:19:23;;;;;;;0.20;0.20;;;19.80;99.90;;;;;;5086832;28;20063;-74
2023/09/28 12:21:48;;;;;;;0.20;0.20;;;19.80;99.90;;;;;;5083719;28;20047;-74
2023/09/28 12:24:15;;;;;;;0.20;0.20;;;19.90;99.90;;;;;;5087619;28;20052;-75
2023/09/28 12:26:41;;;;;;;0.20;0.20;;;19.90;99.90;;;;;;5083949;28;20566;-74
2023/09/28 12:29:06;;;;;;;0.20;0.20;;;20.00;99.90;;;;;;5083257;28;20059;-74
2023/09/28 12:31:32;;;;;;;0.20;0.20;;;20.00;99.90;;;;;;5100256;28;20039;-74
2023/09/28 12:33:58;;;;;;;0.20;0.20;;;20.00;99.90;;;;;;5095268;28;20032;-74
2023/09/28 12:36:23;;;;;;;0.20;0.20;;;19.90;99.90;;;;;;5085731;28;20147;-74
2023/09/28 12:38:51;;;;;;;0.20;0.20;;;19.90;99.90;;;;;;5089523;28;20043;-75
2023/09/28 12:41:17;;;;;;;0.20;0.20;;;19.80;99.90;;;;;;5085114;28;20051;-74
2023/09/28 12:43:45;;;;;;;0.20;0.20;;;19.80;99.90;;;;;;5102787;28;20518;-75
2023/09/28 12:46:11;;;;;;;0.20;0.20;;;19.70;99.90;;;;;;5096132;28;20043;-74
2023/09/28 12:48:37;;;;;;;0.20;0.20;;;19.70;99.90;;;;;;5090310;28;20044;-74
2023/09/28 12:51:03;;;;;;;0.20;0.20;;;19.70;99.90;;;;;;5106713;28;20044;-74